createdAt,value
2018-09-10T00:00:22.837Z,91.64
2018-09-10T00:01:22.837Z,91.64
2018-09-10T00:02:22.835Z,91.25
2018-09-10T00:03:22.839Z,91.25
2018-09-10T00:04:22.831Z,91.30
2018-09-10T00:05:22.830Z,91.83
2018-09-10T00:06:22.831Z,92.59
2018-09-10T00:07:22.826Z,91.64
2018-09-10T00:08:22.825Z,91.45
2018-09-10T00:09:22.822Z,91.40
2018-09-10T00:10:22.822Z,91.54
2018-09-10T00:11:22.820Z,91.50
2018-09-10T00:12:22.818Z,91.35
2018-09-10T00:13:22.815Z,92.40
2018-09-10T00:14:22.817Z,92.26
2018-09-10T00:15:22.812Z,91.59
2018-09-10T00:16:22.811Z,92.26
2018-09-10T00:17:22.809Z,92.64
2018-09-10T00:18:22.809Z,92.93
2018-09-10T00:19:22.804Z,92.74
2018-09-10T00:20:22.805Z,92.55
2018-09-10T00:21:22.802Z,92.64
2018-09-10T00:22:22.802Z,93.12
2018-09-10T00:23:22.798Z,92.93
2018-09-10T00:24:22.796Z,92.45
2018-09-10T00:25:22.794Z,93.02
2018-09-10T00:26:22.799Z,92.83
2018-09-10T00:27:22.791Z,92.93
2018-09-10T00:28:22.787Z,93.98
2018-09-10T00:29:22.788Z,94.27
2018-09-10T00:30:22.787Z,94.55
2018-09-10T00:31:22.782Z,94.17
2018-09-10T00:32:22.783Z,94.27
2018-09-10T00:33:22.780Z,93.88
2018-09-10T00:34:22.779Z,94.36
2018-09-10T00:35:22.784Z,94.84
2018-09-10T00:36:22.776Z,94.55
2018-09-10T00:37:22.773Z,94.55
2018-09-10T00:38:22.773Z,94.84
2018-09-10T00:39:22.768Z,95.41
2018-09-10T00:40:22.765Z,95.61
2018-09-10T00:41:22.767Z,95.89
2018-09-10T00:42:22.768Z,94.74
2018-09-10T00:43:23.567Z,94.84
2018-09-10T00:44:22.762Z,95.32
2018-09-10T00:45:22.758Z,95.32
2018-09-10T00:46:22.756Z,95.89
2018-09-10T00:47:22.763Z,95.32
2018-09-10T00:48:22.752Z,95.70
2018-09-10T00:49:22.749Z,96.13
2018-09-10T00:50:22.753Z,96.13
2018-09-10T00:51:22.741Z,95.51
2018-09-10T00:52:22.744Z,96.22
2018-09-10T00:53:22.751Z,96.70
2018-09-10T00:54:22.740Z,96.51
2018-09-10T00:55:22.743Z,97.18
2018-09-10T00:56:22.734Z,97.08
2018-09-10T00:57:22.734Z,96.61
2018-09-10T00:58:22.733Z,96.66
2018-09-10T00:59:22.729Z,96.27
2018-09-10T01:00:22.727Z,96.32
2018-09-10T01:01:22.725Z,96.42
2018-09-10T01:02:22.724Z,95.94
2018-09-10T01:03:22.721Z,95.98
2018-09-10T01:04:22.715Z,96.46
2018-09-10T01:05:22.719Z,96.56
2018-09-10T01:06:22.717Z,96.27
2018-09-10T01:07:22.711Z,95.94
2018-09-10T01:08:22.714Z,95.79
2018-09-10T01:09:22.710Z,96.17
2018-09-10T01:10:22.706Z,96.66
2018-09-10T01:11:22.704Z,96.80
2018-09-10T01:12:22.704Z,96.56
2018-09-10T01:13:22.699Z,96.70
2018-09-10T01:14:22.693Z,96.42
2018-09-10T01:15:22.695Z,96.42
2018-09-10T01:16:22.692Z,96.42
2018-09-10T01:17:22.689Z,96.51
2018-09-10T01:18:22.690Z,96.42
2018-09-10T01:19:22.686Z,96.22
2018-09-10T01:20:22.684Z,96.03
2018-09-10T01:21:22.683Z,96.51
2018-09-10T01:22:22.683Z,96.51
2018-09-10T01:23:22.678Z,96.98
2018-09-10T01:24:22.677Z,97.18
2018-09-10T01:25:22.672Z,97.56
2018-09-10T01:26:22.672Z,96.89
2018-09-10T01:27:22.669Z,97.94
2018-09-10T01:28:22.666Z,97.94
2018-09-10T01:29:22.662Z,98.13
2018-09-10T01:30:22.660Z,98.71
2018-09-10T01:31:22.658Z,99.08
2018-09-10T01:32:22.656Z,98.52
2018-09-10T01:33:22.654Z,98.23
2018-09-10T01:34:22.654Z,97.94
2018-09-10T01:35:22.649Z,98.23
2018-09-10T01:36:22.647Z,98.03
2018-09-10T01:37:22.644Z,98.13
2018-09-10T01:38:22.642Z,97.85
2018-09-10T01:39:22.640Z,98.52
2018-09-10T01:40:22.637Z,98.03
2018-09-10T01:41:22.634Z,98.03
2018-09-10T01:42:22.633Z,97.75
2018-09-10T01:43:22.629Z,97.75
2018-09-10T01:44:22.626Z,97.85
2018-09-10T01:45:22.626Z,98.23
2018-09-10T01:46:22.623Z,98.03
2018-09-10T01:47:22.621Z,98.61
2018-09-10T01:48:22.620Z,98.23
2018-09-10T01:49:22.614Z,98.32
2018-09-10T01:50:22.614Z,98.32
2018-09-10T01:51:22.612Z,97.85
2018-09-10T01:52:22.607Z,98.52
2018-09-10T01:53:22.605Z,99.08
2018-09-10T01:54:22.606Z,99.37
2018-09-10T01:55:22.607Z,98.99
2018-09-10T01:56:22.598Z,99.66
2018-09-10T01:57:22.599Z,99.47
2018-09-10T01:58:22.598Z,99.76
2018-09-10T01:59:22.590Z,99.28
2018-09-10T02:00:22.594Z,98.71
2018-09-10T02:01:22.586Z,99.18
2018-09-10T02:02:22.584Z,99.08
2018-09-10T02:03:22.586Z,99.18
2018-09-10T02:04:22.576Z,98.99
2018-09-10T02:05:22.577Z,99.57
2018-09-10T02:06:22.575Z,99.47
2018-09-10T02:07:22.575Z,99.37
2018-09-10T02:08:22.567Z,98.99
2018-09-10T02:09:22.611Z,98.61
2018-09-10T02:10:22.564Z,98.99
2018-09-10T02:11:22.558Z,99.28
2018-09-10T02:12:22.560Z,98.99
2018-09-10T02:13:22.555Z,98.61
2018-09-10T02:14:22.553Z,98.13
2018-09-10T02:15:22.551Z,98.42
2018-09-10T02:16:22.549Z,97.89
2018-09-10T02:17:22.557Z,98.03
2018-09-10T02:18:22.545Z,97.71
2018-09-10T02:19:22.547Z,97.71
2018-09-10T02:20:22.626Z,97.52
2018-09-10T02:21:22.538Z,97.42
2018-09-10T02:22:22.530Z,97.42
2018-09-10T02:23:22.532Z,96.66
2018-09-10T02:24:22.533Z,96.84
2018-09-10T02:25:22.528Z,96.75
2018-09-10T02:26:22.526Z,96.17
2018-09-10T02:27:22.585Z,96.37
2018-09-10T02:28:22.522Z,96.27
2018-09-10T02:29:22.546Z,96.75
2018-09-10T02:30:22.517Z,96.56
2018-09-10T02:31:22.518Z,96.75
2018-09-10T02:32:22.511Z,96.56
2018-09-10T02:33:22.508Z,96.46
2018-09-10T02:34:22.507Z,96.37
2018-09-10T02:35:22.504Z,96.56
2018-09-10T02:36:22.505Z,96.75
2018-09-10T02:37:22.500Z,96.37
2018-09-10T02:38:22.533Z,95.98
2018-09-10T02:39:22.495Z,95.70
2018-09-10T02:40:22.494Z,96.32
2018-09-10T02:41:22.500Z,96.08
2018-09-10T02:42:22.490Z,96.22
2018-09-10T02:43:22.487Z,95.79
2018-09-10T02:44:22.483Z,96.27
2018-09-10T02:45:22.487Z,96.75
2018-09-10T02:46:22.484Z,96.37
2018-09-10T02:47:22.477Z,97.03
2018-09-10T02:48:22.479Z,97.23
2018-09-10T02:49:22.477Z,96.84
2018-09-10T02:50:22.471Z,96.66
2018-09-10T02:51:22.471Z,96.66
2018-09-10T02:52:22.466Z,96.27
2018-09-10T02:53:22.462Z,96.66
2018-09-10T02:54:22.464Z,96.84
2018-09-10T02:55:22.461Z,96.75
2018-09-10T02:56:22.455Z,96.46
2018-09-10T02:57:22.456Z,96.37
2018-09-10T02:58:22.452Z,96.27
2018-09-10T02:59:22.451Z,96.66
2018-09-10T03:00:22.451Z,96.66
2018-09-10T03:01:22.447Z,96.46
2018-09-10T03:02:22.445Z,96.66
2018-09-10T03:03:22.447Z,96.75
2018-09-10T03:04:22.444Z,96.46
2018-09-10T03:05:22.438Z,96.46
2018-09-10T03:06:22.436Z,96.56
2018-09-10T03:07:22.434Z,96.84
2018-09-10T03:08:22.434Z,96.84
2018-09-10T03:09:22.429Z,96.84
2018-09-10T03:10:22.442Z,96.66
2018-09-10T03:11:22.425Z,96.75
2018-09-10T03:12:22.422Z,96.56
2018-09-10T03:13:23.036Z,96.66
2018-09-10T03:14:22.424Z,97.03
2018-09-10T03:15:22.426Z,97.23
2018-09-10T03:16:22.414Z,97.13
2018-09-10T03:17:22.412Z,97.23
2018-09-10T03:18:22.411Z,97.42
2018-09-10T03:19:22.403Z,96.94
2018-09-10T03:20:22.408Z,96.84
2018-09-10T03:21:22.405Z,97.23
2018-09-10T03:22:22.402Z,96.75
2018-09-10T03:23:22.395Z,97.42
2018-09-10T03:24:22.397Z,97.71
2018-09-10T03:25:22.395Z,96.94
2018-09-10T03:26:22.397Z,97.42
2018-09-10T03:27:22.394Z,97.56
2018-09-10T03:28:22.386Z,97.47
2018-09-10T03:29:22.384Z,97.56
2018-09-10T03:30:22.384Z,98.42
2018-09-10T03:31:22.380Z,98.99
2018-09-10T03:32:22.378Z,98.61
2018-09-10T03:33:22.415Z,98.99
2018-09-10T03:34:22.373Z,99.66
2018-09-10T03:35:22.371Z,99.08
2018-09-10T03:36:22.385Z,98.71
2018-09-10T03:37:22.370Z,98.99
2018-09-10T03:38:22.376Z,99.08
2018-09-10T03:39:22.365Z,99.18
2018-09-10T03:40:22.359Z,98.52
2018-09-10T03:41:22.358Z,98.42
2018-09-10T03:42:22.353Z,98.13
2018-09-10T03:43:22.351Z,98.13
2018-09-10T03:44:22.356Z,98.32
2018-09-10T03:45:22.349Z,98.32
2018-09-10T03:46:22.347Z,97.85
2018-09-10T03:47:22.481Z,98.23
2018-09-10T03:48:22.342Z,97.94
2018-09-10T03:49:22.340Z,98.32
2018-09-10T03:50:22.335Z,98.52
2018-09-10T03:51:22.335Z,98.71
2018-09-10T03:52:22.332Z,98.90
2018-09-10T03:53:22.329Z,99.18
2018-09-10T03:54:22.328Z,99.08
2018-09-10T03:55:22.321Z,98.90
2018-09-10T03:56:22.328Z,98.71
2018-09-10T03:57:22.321Z,99.28
2018-09-10T03:58:22.315Z,99.28
2018-09-10T03:59:22.313Z,99.47
2018-09-10T04:00:22.311Z,98.71
2018-09-10T04:01:22.314Z,99.18
2018-09-10T04:02:22.307Z,98.99
2018-09-10T04:03:22.307Z,98.99
2018-09-10T04:04:22.301Z,99.28
2018-09-10T04:05:22.300Z,98.90
2018-09-10T04:06:22.300Z,99.76
2018-09-10T04:07:22.293Z,99.08
2018-09-10T04:08:22.296Z,98.80
2018-09-10T04:09:22.293Z,99.28
2018-09-10T04:10:22.294Z,99.76
2018-09-10T04:11:22.284Z,99.99
2018-09-10T04:12:22.283Z,99.37
2018-09-10T04:13:22.281Z,99.66
2018-09-10T04:14:22.277Z,99.37
2018-09-10T04:15:22.274Z,99.28
2018-09-10T04:16:22.272Z,98.80
2018-09-10T04:17:22.340Z,98.90
2018-09-10T04:18:22.268Z,99.08
2018-09-10T04:19:22.275Z,98.99
2018-09-10T04:20:22.261Z,98.90
2018-09-10T04:21:22.264Z,99.08
2018-09-10T04:22:22.261Z,98.90
2018-09-10T04:23:22.254Z,99.85
2018-09-10T04:24:22.251Z,99.66
2018-09-10T04:25:22.254Z,99.99
2018-09-10T04:26:22.249Z,99.47
2018-09-10T04:27:22.245Z,99.57
2018-09-10T04:28:22.244Z,99.66
2018-09-10T04:29:22.240Z,99.28
2018-09-10T04:30:22.240Z,99.85
2018-09-10T04:31:22.236Z,99.95
2018-09-10T04:32:22.232Z,99.95
2018-09-10T04:33:22.231Z,99.76
2018-09-10T04:34:22.233Z,99.66
2018-09-10T04:35:22.226Z,99.37
2018-09-10T04:36:22.228Z,99.95
2018-09-10T04:37:22.225Z,99.99
2018-09-10T04:38:22.216Z,99.66
2018-09-10T04:39:22.217Z,99.85
2018-09-10T04:40:22.211Z,99.57
2018-09-10T04:41:22.212Z,99.47
2018-09-10T04:42:22.217Z,98.90
2018-09-10T04:43:22.207Z,98.80
2018-09-10T04:44:22.203Z,99.28
2018-09-10T04:45:22.202Z,99.18
2018-09-10T04:46:22.199Z,98.90
2018-09-10T04:47:22.198Z,99.08
2018-09-10T04:48:22.189Z,99.18
2018-09-10T04:49:22.192Z,99.28
2018-09-10T04:50:22.190Z,99.37
2018-09-10T04:51:22.193Z,99.37
2018-09-10T04:52:22.191Z,99.18
2018-09-10T04:53:22.182Z,98.90
2018-09-10T04:54:22.179Z,98.57
2018-09-10T04:55:22.181Z,98.18
2018-09-10T04:56:22.171Z,97.89
2018-09-10T04:57:22.172Z,97.99
2018-09-10T04:58:22.170Z,97.80
2018-09-10T04:59:22.169Z,97.71
2018-09-10T05:00:22.161Z,97.03
2018-09-10T05:01:22.162Z,96.84
2018-09-10T05:02:22.161Z,97.80
2018-09-10T05:03:22.155Z,97.61
2018-09-10T05:04:22.182Z,97.99
2018-09-10T05:05:22.154Z,97.89
2018-09-10T05:06:22.152Z,97.71
2018-09-10T05:07:22.147Z,97.71
2018-09-10T05:08:22.162Z,97.61
2018-09-10T05:09:22.142Z,97.52
2018-09-10T05:10:22.139Z,97.80
2018-09-10T05:11:22.136Z,97.18
2018-09-10T05:12:22.139Z,97.18
2018-09-10T05:13:22.136Z,97.23
2018-09-10T05:14:22.134Z,96.80
2018-09-10T05:15:22.132Z,96.13
2018-09-10T05:16:22.126Z,96.70
2018-09-10T05:17:22.137Z,96.22
2018-09-10T05:18:22.133Z,96.70
2018-09-10T05:19:22.119Z,96.51
2018-09-10T05:20:22.115Z,96.13
2018-09-10T05:21:22.115Z,96.61
2018-09-10T05:22:22.114Z,96.70
2018-09-10T05:23:22.110Z,96.22
2018-09-10T05:24:22.109Z,95.75
2018-09-10T05:25:22.106Z,95.65
2018-09-10T05:26:22.105Z,95.84
2018-09-10T05:27:22.104Z,95.56
2018-09-10T05:28:22.104Z,95.84
2018-09-10T05:29:22.100Z,95.65
2018-09-10T05:30:22.095Z,95.12
2018-09-10T05:31:22.092Z,94.93
2018-09-10T05:32:22.091Z,94.36
2018-09-10T05:33:22.090Z,93.98
2018-09-10T05:34:22.092Z,94.07
2018-09-10T05:35:22.085Z,93.12
2018-09-10T05:36:22.083Z,93.02
2018-09-10T05:37:22.080Z,93.31
2018-09-10T05:38:22.086Z,93.35
2018-09-10T05:39:22.077Z,93.26
2018-09-10T05:40:22.077Z,92.88
2018-09-10T05:41:22.076Z,92.97
2018-09-10T05:42:22.069Z,92.30
2018-09-10T05:43:22.065Z,92.21
2018-09-10T05:44:22.069Z,91.44
2018-09-10T05:45:22.070Z,91.73
2018-09-10T05:46:22.071Z,91.63
2018-09-10T05:47:22.076Z,91.20
2018-09-10T05:48:22.065Z,91.30
2018-09-10T05:49:22.065Z,91.39
2018-09-10T05:50:22.058Z,91.68
2018-09-10T05:51:22.054Z,91.58
2018-09-10T05:52:22.054Z,90.72
2018-09-10T05:53:22.114Z,90.29
2018-09-10T05:54:22.052Z,89.72
2018-09-10T05:55:22.109Z,87.74
2018-09-10T05:56:22.049Z,86.74
2018-09-10T05:57:22.044Z,85.11
2018-09-10T05:58:22.041Z,83.91
2018-09-10T05:59:22.043Z,83.14
2018-09-10T06:00:22.044Z,82.94
2018-09-10T06:01:22.043Z,81.84
2018-09-10T06:02:22.041Z,81.54
2018-09-10T06:03:22.045Z,80.30
2018-09-10T06:04:22.037Z,79.86
2018-09-10T06:05:22.037Z,79.42
2018-09-10T06:06:22.042Z,77.83
2018-09-10T06:07:22.035Z,77.06
2018-09-10T06:08:22.036Z,76.04
2018-09-10T06:09:22.035Z,75.65
2018-09-10T06:10:22.051Z,74.54
2018-09-10T06:11:22.027Z,73.13
2018-09-10T06:12:22.032Z,71.11
2018-09-10T06:13:22.032Z,70.18
2018-09-10T06:14:22.033Z,67.78
2018-09-10T06:15:22.031Z,64.37
2018-09-10T06:16:22.034Z,60.47
2018-09-10T06:17:22.032Z,58.60
2018-09-10T06:18:22.032Z,56.82
2018-09-10T06:19:22.032Z,54.16
2018-09-10T06:20:22.035Z,52.73
2018-09-10T06:21:22.038Z,51.50
2018-09-10T06:22:22.032Z,51.14
2018-09-10T06:23:22.037Z,49.32
2018-09-10T06:24:22.036Z,47.98
2018-09-10T06:25:22.038Z,46.58
2018-09-10T06:26:22.039Z,48.57
2018-09-10T06:27:22.042Z,50.07
2018-09-10T06:28:22.037Z,51.56
2018-09-10T06:29:22.042Z,52.46
2018-09-10T06:30:22.123Z,51.08
2018-09-10T06:31:22.048Z,52.89
2018-09-10T06:32:22.050Z,53.71
2018-09-10T06:33:22.051Z,55.98
2018-09-10T06:34:22.055Z,56.65
2018-09-10T06:35:22.055Z,57.87
2018-09-10T06:36:22.056Z,57.92
2018-09-10T06:37:22.061Z,59.94
2018-09-10T06:38:22.060Z,61.29
2018-09-10T06:39:22.066Z,60.87
2018-09-10T06:40:22.066Z,62.03
2018-09-10T06:41:22.065Z,61.93
2018-09-10T06:42:22.066Z,61.35
2018-09-10T06:43:22.068Z,61.65
2018-09-10T06:44:22.073Z,61.74
2018-09-10T06:45:22.073Z,61.74
2018-09-10T06:46:22.073Z,61.38
2018-09-10T06:47:22.074Z,61.96
2018-09-10T06:48:22.593Z,62.09
2018-09-10T06:49:22.079Z,61.10
2018-09-10T06:50:22.599Z,60.90
2018-09-10T06:51:22.081Z,61.22
2018-09-10T06:52:22.084Z,60.42
2018-09-10T06:53:22.120Z,60.64
2018-09-10T06:54:22.090Z,59.90
2018-09-10T06:55:22.089Z,58.87
2018-09-10T06:56:22.089Z,56.77
2018-09-10T06:57:22.088Z,55.87
2018-09-10T06:58:22.095Z,55.77
2018-09-10T06:59:22.097Z,55.89
2018-09-10T07:00:22.182Z,55.31
2018-09-10T07:01:22.112Z,54.57
2018-09-10T07:02:22.102Z,51.95
2018-09-10T07:03:22.102Z,50.70
2018-09-10T07:04:22.107Z,50.92
2018-09-10T07:05:22.107Z,51.59
2018-09-10T07:06:22.176Z,51.23
2018-09-10T07:07:22.113Z,50.65
2018-09-10T07:08:22.115Z,50.38
2018-09-10T07:09:22.118Z,49.97
2018-09-10T07:10:22.117Z,50.65
2018-09-10T07:11:22.123Z,51.01
2018-09-10T07:12:22.127Z,51.47
2018-09-10T07:13:22.130Z,52.05
2018-09-10T07:14:22.137Z,52.70
2018-09-10T07:15:22.136Z,53.21
2018-09-10T07:16:22.136Z,52.05
2018-09-10T07:17:22.142Z,51.64
2018-09-10T07:18:22.145Z,51.98
2018-09-10T07:19:22.149Z,51.66
2018-09-10T07:20:22.154Z,52.56
2018-09-10T07:21:22.156Z,52.82
2018-09-10T07:22:22.156Z,52.14
2018-09-10T07:23:22.159Z,52.92
2018-09-10T07:24:22.162Z,53.41
2018-09-10T07:25:22.166Z,53.38
2018-09-10T07:26:22.166Z,53.11
2018-09-10T07:27:22.168Z,53.86
2018-09-10T07:28:22.173Z,53.57
2018-09-10T07:29:22.260Z,53.64
2018-09-10T07:30:22.180Z,53.64
2018-09-10T07:31:22.180Z,54.68
2018-09-10T07:32:22.194Z,54.58
2018-09-10T07:33:22.189Z,54.58
2018-09-10T07:34:22.196Z,53.91
2018-09-10T07:35:22.204Z,54.68
2018-09-10T07:36:22.197Z,55.26
2018-09-10T07:37:22.202Z,55.16
2018-09-10T07:38:22.206Z,55.65
2018-09-10T07:39:22.211Z,56.13
2018-09-10T07:40:22.210Z,55.23
2018-09-10T07:41:22.304Z,55.26
2018-09-10T07:42:22.216Z,55.55
2018-09-10T07:43:23.205Z,55.07
2018-09-10T07:44:22.221Z,54.68
2018-09-10T07:45:22.226Z,56.13
2018-09-10T07:46:22.226Z,54.61
2018-09-10T07:47:22.230Z,54.51
2018-09-10T07:48:22.232Z,54.51
2018-09-10T07:49:22.239Z,53.64
2018-09-10T07:50:22.241Z,53.25
2018-09-10T07:51:22.240Z,53.64
2018-09-10T07:52:22.244Z,54.51
2018-09-10T07:53:22.250Z,54.63
2018-09-10T07:54:22.272Z,54.03
2018-09-10T07:55:22.508Z,53.83
2018-09-10T07:56:22.256Z,52.77
2018-09-10T07:57:22.379Z,53.19
2018-09-10T07:58:22.261Z,52.58
2018-09-10T07:59:22.261Z,52.89
2018-09-10T08:00:22.264Z,52.99
2018-09-10T08:01:22.317Z,52.70
2018-09-10T08:02:22.274Z,52.70
2018-09-10T08:03:22.277Z,53.09
2018-09-10T08:04:22.275Z,51.73
2018-09-10T08:05:22.283Z,52.82
2018-09-10T08:06:22.308Z,52.73
2018-09-10T08:07:22.295Z,52.82
2018-09-10T08:08:22.291Z,52.05
2018-09-10T08:09:22.389Z,51.86
2018-09-10T08:10:22.304Z,52.05
2018-09-10T08:11:22.302Z,52.82
2018-09-10T08:12:22.304Z,52.95
2018-09-10T08:13:22.362Z,51.37
2018-09-10T08:14:22.310Z,52.05
2018-09-10T08:15:22.312Z,52.73
2018-09-10T08:16:22.317Z,52.73
2018-09-10T08:17:22.321Z,52.85
2018-09-10T08:18:22.324Z,52.75
2018-09-10T08:19:22.327Z,51.88
2018-09-10T08:20:22.332Z,52.75
2018-09-10T08:21:22.335Z,52.95
2018-09-10T08:22:22.500Z,52.08
2018-09-10T08:23:22.340Z,52.75
2018-09-10T08:24:22.456Z,52.08
2018-09-10T08:25:22.348Z,53.04
2018-09-10T08:26:23.203Z,51.30
2018-09-10T08:27:23.142Z,51.59
2018-09-10T08:28:22.362Z,51.52
2018-09-10T08:29:22.361Z,51.04
2018-09-10T08:30:22.419Z,51.32
2018-09-10T08:31:22.654Z,50.26
2018-09-10T08:32:22.370Z,51.04
2018-09-10T08:33:22.373Z,51.32
2018-09-10T08:34:22.392Z,50.94
2018-09-10T08:35:22.381Z,50.55
2018-09-10T08:36:22.448Z,50.16
2018-09-10T08:37:22.604Z,51.04
2018-09-10T08:38:22.397Z,50.67
2018-09-10T08:39:22.462Z,50.57
2018-09-10T08:40:22.400Z,49.87
2018-09-10T08:41:22.403Z,50.96
2018-09-10T08:42:22.408Z,50.09
2018-09-10T08:43:22.413Z,50.41
2018-09-10T08:44:22.411Z,50.21
2018-09-10T08:45:22.419Z,49.82
2018-09-10T08:46:22.423Z,48.76
2018-09-10T08:47:22.431Z,49.07
2018-09-10T08:48:22.524Z,49.37
2018-09-10T08:49:22.434Z,48.97
2018-09-10T08:50:22.447Z,48.88
2018-09-10T08:51:22.462Z,48.18
2018-09-10T08:52:22.446Z,47.60
2018-09-10T08:53:22.453Z,47.60
2018-09-10T08:54:22.492Z,47.79
2018-09-10T08:55:22.571Z,48.39
2018-09-10T08:56:22.541Z,47.42
2018-09-10T08:57:22.467Z,47.33
2018-09-10T08:58:22.483Z,47.40
2018-09-10T08:59:22.472Z,48.08
2018-09-10T09:00:22.511Z,46.92
2018-09-10T09:01:22.480Z,47.13
2018-09-10T09:02:22.486Z,46.82
2018-09-10T09:03:23.163Z,46.65
2018-09-10T09:04:22.493Z,46.84
2018-09-10T09:05:22.499Z,46.36
2018-09-10T09:06:22.561Z,45.78
2018-09-10T09:07:23.220Z,45.58
2018-09-10T09:08:22.517Z,45.58
2018-09-10T09:09:22.516Z,45.00
2018-09-10T09:10:22.521Z,45.10
2018-09-10T09:11:22.570Z,45.78
2018-09-10T09:12:22.526Z,45.58
2018-09-10T09:13:22.619Z,47.42
2018-09-10T09:14:22.556Z,46.94
2018-09-10T09:15:22.638Z,46.36
2018-09-10T09:16:22.640Z,45.87
2018-09-10T09:17:22.575Z,45.89
2018-09-10T09:18:22.554Z,45.68
2018-09-10T09:19:22.558Z,45.39
2018-09-10T09:20:22.564Z,45.87
2018-09-10T09:21:22.641Z,44.42
2018-09-10T09:22:22.575Z,44.61
2018-09-10T09:23:22.601Z,44.81
2018-09-10T09:24:22.880Z,44.32
2018-09-10T09:25:22.589Z,43.64
2018-09-10T09:26:22.594Z,44.20
2018-09-10T09:27:22.594Z,44.30
2018-09-10T09:28:22.598Z,43.62
2018-09-10T09:29:22.607Z,44.40
2018-09-10T09:30:22.781Z,44.20
2018-09-10T09:31:22.613Z,43.82
2018-09-10T09:32:22.617Z,44.13
2018-09-10T09:33:22.620Z,45.00
2018-09-10T09:34:22.624Z,44.10
2018-09-10T09:35:22.630Z,43.91
2018-09-10T09:36:22.740Z,44.30
2018-09-10T09:37:22.642Z,44.40
2018-09-10T09:38:22.649Z,44.68
2018-09-10T09:39:22.649Z,44.49
2018-09-10T09:40:22.655Z,44.59
2018-09-10T09:41:22.661Z,44.78
2018-09-10T09:42:22.667Z,44.88
2018-09-10T09:43:22.677Z,44.68
2018-09-10T09:44:22.675Z,45.07
2018-09-10T09:45:22.679Z,45.65
2018-09-10T09:46:22.686Z,45.07
2018-09-10T09:47:22.689Z,44.98
2018-09-10T09:48:22.686Z,44.88
2018-09-10T09:49:22.882Z,44.59
2018-09-10T09:50:22.747Z,44.98
2018-09-10T09:51:22.701Z,45.75
2018-09-10T09:52:22.800Z,45.65
2018-09-10T09:53:22.727Z,45.47
2018-09-10T09:54:23.339Z,45.56
2018-09-10T09:55:23.180Z,45.37
2018-09-10T09:56:22.728Z,45.47
2018-09-10T09:57:22.729Z,45.17
2018-09-10T09:58:22.735Z,44.88
2018-09-10T09:59:22.738Z,44.88
2018-09-10T10:00:22.742Z,44.88
2018-09-10T10:01:22.755Z,44.78
2018-09-10T10:02:22.753Z,44.98
2018-09-10T10:03:22.756Z,45.07
2018-09-10T10:04:22.778Z,45.75
2018-09-10T10:05:22.765Z,45.68
2018-09-10T10:06:22.771Z,44.98
2018-09-10T10:07:23.016Z,46.04
2018-09-10T10:08:22.779Z,44.98
2018-09-10T10:09:22.785Z,45.17
2018-09-10T10:10:22.829Z,45.65
2018-09-10T10:11:22.910Z,45.17
2018-09-10T10:12:22.941Z,45.65
2018-09-10T10:13:22.813Z,45.97
2018-09-10T10:14:22.808Z,45.68
2018-09-10T10:15:22.813Z,45.68
2018-09-10T10:16:22.844Z,44.90
2018-09-10T10:17:22.822Z,45.10
2018-09-10T10:18:22.850Z,45.78
2018-09-10T10:19:22.858Z,46.26
2018-09-10T10:20:22.834Z,46.07
2018-09-10T10:21:22.836Z,45.51
2018-09-10T10:22:22.844Z,46.28
2018-09-10T10:23:22.848Z,45.21
2018-09-10T10:24:22.898Z,44.83
2018-09-10T10:25:22.908Z,45.02
2018-09-10T10:26:22.861Z,44.44
2018-09-10T10:27:22.871Z,44.64
2018-09-10T10:28:23.029Z,44.95
2018-09-10T10:29:22.876Z,45.14
2018-09-10T10:30:22.879Z,43.88
2018-09-10T10:31:22.887Z,44.07
2018-09-10T10:32:22.888Z,44.37
2018-09-10T10:33:22.892Z,43.30
2018-09-10T10:34:22.896Z,43.18
2018-09-10T10:35:22.909Z,43.66
2018-09-10T10:36:22.905Z,44.24
2018-09-10T10:37:22.909Z,43.86
2018-09-10T10:38:23.137Z,44.34
2018-09-10T10:39:22.961Z,44.54
2018-09-10T10:40:22.926Z,44.15
2018-09-10T10:41:23.040Z,44.32
2018-09-10T10:42:22.939Z,44.15
2018-09-10T10:43:22.942Z,44.23
2018-09-10T10:44:22.948Z,44.54
2018-09-10T10:45:22.957Z,44.92
2018-09-10T10:46:22.956Z,43.93
2018-09-10T10:47:23.012Z,44.24
2018-09-10T10:48:22.965Z,44.32
2018-09-10T10:49:22.973Z,44.92
2018-09-10T10:50:23.155Z,44.51
2018-09-10T10:51:22.976Z,44.34
2018-09-10T10:52:22.983Z,44.42
2018-09-10T10:53:22.986Z,44.23
2018-09-10T10:54:22.996Z,44.24
2018-09-10T10:55:22.999Z,44.44
2018-09-10T10:56:23.091Z,44.24
2018-09-10T10:57:23.707Z,44.24
2018-09-10T10:58:23.011Z,44.15
2018-09-10T10:59:23.017Z,44.24
2018-09-10T11:00:23.023Z,44.15
2018-09-10T11:01:23.027Z,44.07
2018-09-10T11:02:23.034Z,44.27
2018-09-10T11:03:23.037Z,44.07
2018-09-10T11:04:23.042Z,43.80
2018-09-10T11:05:23.049Z,43.90
2018-09-10T11:06:23.053Z,43.90
2018-09-10T11:07:23.061Z,43.80
2018-09-10T11:08:23.066Z,44.27
2018-09-10T11:09:23.063Z,43.78
2018-09-10T11:10:23.070Z,43.78
2018-09-10T11:11:23.591Z,42.89
2018-09-10T11:12:23.147Z,43.49
2018-09-10T11:13:23.295Z,43.47
2018-09-10T11:14:23.609Z,44.34
2018-09-10T11:15:23.281Z,44.46
2018-09-10T11:16:23.126Z,44.75
2018-09-10T11:17:23.390Z,44.54
2018-09-10T11:18:23.921Z,43.88
2018-09-10T11:19:23.301Z,44.95
2018-09-10T11:20:23.420Z,44.17
2018-09-10T11:21:23.189Z,43.98
2018-09-10T11:22:23.623Z,44.17
2018-09-10T11:23:23.257Z,44.17
2018-09-10T11:24:23.139Z,44.29
2018-09-10T11:25:24.462Z,44.37
2018-09-10T11:26:23.151Z,43.80
2018-09-10T11:27:23.522Z,44.19
2018-09-10T11:28:25.001Z,44.21
2018-09-10T11:29:23.506Z,43.92
2018-09-10T11:30:23.809Z,43.54
2018-09-10T11:31:23.670Z,42.46
2018-09-10T11:32:24.426Z,41.90
2018-09-10T11:33:23.300Z,41.39
2018-09-10T11:34:23.629Z,41.77
2018-09-10T11:35:23.422Z,42.74
2018-09-10T11:36:23.294Z,43.02
2018-09-10T11:37:23.755Z,42.76
2018-09-10T11:38:23.665Z,42.93
2018-09-10T11:39:23.297Z,42.18
2018-09-10T11:40:23.397Z,42.27
2018-09-10T11:41:23.272Z,42.36
2018-09-10T11:42:23.320Z,42.18
2018-09-10T11:43:23.309Z,42.18
2018-09-10T11:44:23.277Z,41.98
2018-09-10T11:45:23.256Z,42.46
2018-09-10T11:46:23.438Z,42.36
2018-09-10T11:47:23.294Z,42.46
2018-09-10T11:48:23.295Z,42.46
2018-09-10T11:49:23.288Z,41.88
2018-09-10T11:50:23.310Z,42.66
2018-09-10T11:51:23.381Z,41.98
2018-09-10T11:52:23.349Z,42.27
2018-09-10T11:53:23.320Z,41.88
2018-09-10T11:54:23.298Z,40.33
2018-09-10T11:55:23.420Z,39.06
2018-09-10T11:56:23.330Z,38.77
2018-09-10T11:57:23.489Z,39.94
2018-09-10T11:58:23.394Z,40.33
2018-09-10T11:59:23.381Z,39.76
2018-09-10T12:00:23.385Z,38.79
2018-09-10T12:01:23.374Z,39.67
2018-09-10T12:02:23.621Z,38.50
2018-09-10T12:03:23.343Z,38.98
2018-09-10T12:04:23.403Z,38.70
2018-09-10T12:05:23.392Z,39.06
2018-09-10T12:06:23.375Z,38.77
2018-09-10T12:07:23.418Z,38.67
2018-09-10T12:08:23.528Z,38.39
2018-09-10T12:09:23.401Z,38.87
2018-09-10T12:10:23.431Z,39.06
2018-09-10T12:11:23.409Z,39.06
2018-09-10T12:12:23.445Z,38.96
2018-09-10T12:13:23.447Z,38.79
2018-09-10T12:14:23.537Z,38.50
2018-09-10T12:15:23.474Z,38.50
2018-09-10T12:16:23.481Z,38.31
2018-09-10T12:17:24.310Z,38.40
2018-09-10T12:18:23.682Z,37.72
2018-09-10T12:19:23.434Z,38.48
2018-09-10T12:20:23.437Z,38.31
2018-09-10T12:21:23.484Z,38.50
2018-09-10T12:22:23.449Z,37.60
2018-09-10T12:23:23.454Z,36.83
2018-09-10T12:24:23.455Z,37.02
2018-09-10T12:25:23.459Z,36.93
2018-09-10T12:26:23.466Z,36.73
2018-09-10T12:27:23.469Z,38.09
2018-09-10T12:28:23.477Z,38.87
2018-09-10T12:29:23.482Z,37.98
2018-09-10T12:30:23.487Z,37.98
2018-09-10T12:31:23.491Z,38.07
2018-09-10T12:32:23.554Z,37.59
2018-09-10T12:33:23.505Z,37.37
2018-09-10T12:34:23.509Z,38.25
2018-09-10T12:35:23.509Z,38.15
2018-09-10T12:36:23.518Z,37.57
2018-09-10T12:37:23.525Z,38.44
2018-09-10T12:38:23.527Z,38.15
2018-09-10T12:39:23.554Z,37.96
2018-09-10T12:40:23.536Z,38.25
2018-09-10T12:41:23.542Z,37.86
2018-09-10T12:42:23.547Z,37.76
2018-09-10T12:43:23.552Z,38.34
2018-09-10T12:44:23.558Z,38.34
2018-09-10T12:45:23.564Z,36.99
2018-09-10T12:46:23.573Z,37.57
2018-09-10T12:47:23.577Z,37.57
2018-09-10T12:48:23.581Z,38.06
2018-09-10T12:49:23.587Z,37.96
2018-09-10T12:50:23.596Z,37.76
2018-09-10T12:51:23.594Z,37.47
2018-09-10T12:52:23.600Z,37.47